Pointe-Aux-Trembles, Canada
Current Conditions -  °F | °C
As of 11:00 AM on Thursday 30 Oct 2014 (Local Time) from CYHU Reporting Station
Few Clouds Few Clouds  
Wind Chill: 40°   Ceiling: Unl
Heat Index: 45°   Visibility: 9mi
Dew Point: 32°   Wind: 8mph
Humidity: 61%   Direction: 340°NNW
Pressure: 29.97"   Gusts: NA
Location:  45.65°N, 73.48°W
Report Text: CYHU 301500Z AUTO 34007KT 310V010 9SM FEW027 07/M00 A2997 RMK SLP150
Loading
Personal Weather Stations






























Interactive Weather Map
Tropical Storm Tracking
New forecast layout! Learn more

10-Day Weather Forecast

Advertisements
Track Severe Weather on mobile